Baton Rouge Metropolitan, Ryan Field
KBTR : now visible

Airfield :











YOU CAN JOIN US ON...

 
LOGIN :

Register | Disclaimer

   EN    FR    IT 

 









Legend :    VFR   Marginal VFR   IFR   Intensive IFR   Very Intensive IFR
Visi :
Ceiling :
>= 8 km
>= 3000ft
5 to 8 km
1000 to 3000 ft
1500m to 5 km
500 to 1000 ft
800 to 1500m
200 to 500 ft
< 800m
< 200 ft
Symbols :   Thunderstorms  Fog  Heavy snow  Heavy precipitations  Wind > 20 kt






- Airport Elevation : 70 ft
- IATA code : BTR


KBTR - Baton Rouge Metropolitan, Ryan Field

CURRENT METAR :
  • 100153Z 23011KT 10SM CLR 30/25 A2993 RMK AO2 SLP134 T03000250

EXPIRED METARs :
  • 100053Z 23009KT 10SM CLR 31/24 A2992 RMK AO2 SLP131 T03110244
  • 092353Z 25008KT 10SM SCT047 BKN055 33/23 A2993 RMK AO2 SLP133 T03280228 10344 20322 55004

TAF KBTR
Valid from the 10 at 00:00 until the 11 at 00:00 UTC


092320Z 1000/1024 24008KT P6SM SKC
FM101200 VRB03KT P6SM SCT020
FM101400 27006KT P6SM SCT250
KZHU FIR / North America



MET'MAP, your aeronautical weather chart ! - Copyright ORBIFLY December 2007 - Disclaimer

ORBIFLY MET'MAP TEAM :

Programming & Development : Alexandra Zaïnal
Concept & original design : Baudouin d'Aumeries
Assistance for programming : Marc-Olivier Méhu
Technical & hardware support : Manuel Goepfert

Contact : metmap@orbifly.com




SOURCES & CREDITS :

   NOAA       Earth
Advisory